sensor_id;sensor_type;location;lat;lon;timestamp;P1;durP1;ratioP1;P2;durP2;ratioP2
36351;SDS011;22382;44.768;17.206;2023-04-12T00:00:21;32.47;;;19.08;;
36351;SDS011;22382;44.768;17.206;2023-04-12T00:02:48;28.70;;;19.40;;
36351;SDS011;22382;44.768;17.206;2023-04-12T00:05:20;31.67;;;20.20;;
36351;SDS011;22382;44.768;17.206;2023-04-12T00:10:20;31.30;;;19.08;;
36351;SDS011;22382;44.768;17.206;2023-04-12T00:12:48;26.95;;;17.25;;
36351;SDS011;22382;44.768;17.206;2023-04-12T00:15:15;27.63;;;18.67;;
36351;SDS011;22382;44.768;17.206;2023-04-12T00:17:43;24.85;;;17.60;;
36351;SDS011;22382;44.768;17.206;2023-04-12T00:20:10;25.27;;;16.80;;
36351;SDS011;22382;44.768;17.206;2023-04-12T00:22:38;27.73;;;16.10;;
36351;SDS011;22382;44.768;17.206;2023-04-12T00:25:07;24.75;;;17.05;;
36351;SDS011;22382;44.768;17.206;2023-04-12T00:27:35;26.48;;;16.90;;
36351;SDS011;22382;44.768;17.206;2023-04-12T00:30:03;29.02;;;16.63;;
36351;SDS011;22382;44.768;17.206;2023-04-12T00:32:32;28.52;;;18.02;;
36351;SDS011;22382;44.768;17.206;2023-04-12T00:35:00;26.02;;;16.80;;
36351;SDS011;22382;44.768;17.206;2023-04-12T00:37:27;27.15;;;17.05;;
36351;SDS011;22382;44.768;17.206;2023-04-12T00:39:54;25.98;;;15.98;;
36351;SDS011;22382;44.768;17.206;2023-04-12T00:42:21;22.80;;;15.43;;
36351;SDS011;22382;44.768;17.206;2023-04-12T00:44:48;26.75;;;15.80;;
36351;SDS011;22382;44.768;17.206;2023-04-12T00:47:16;25.08;;;16.30;;
36351;SDS011;22382;44.768;17.206;2023-04-12T00:49:46;22.02;;;14.38;;
36351;SDS011;22382;44.768;17.206;2023-04-12T00:52:13;21.38;;;14.10;;
36351;SDS011;22382;44.768;17.206;2023-04-12T00:54:41;30.70;;;18.75;;
36351;SDS011;22382;44.768;17.206;2023-04-12T00:57:09;25.05;;;15.60;;
36351;SDS011;22382;44.768;17.206;2023-04-12T00:59:36;27.60;;;16.25;;
36351;SDS011;22382;44.768;17.206;2023-04-12T01:02:03;28.40;;;17.25;;
36351;SDS011;22382;44.768;17.206;2023-04-12T01:04:32;23.15;;;14.70;;
36351;SDS011;22382;44.768;17.206;2023-04-12T01:09:45;23.70;;;14.68;;
36351;SDS011;22382;44.768;17.206;2023-04-12T01:15:12;23.10;;;15.25;;
36351;SDS011;22382;44.768;17.206;2023-04-12T01:18:27;24.83;;;15.68;;
36351;SDS011;22382;44.768;17.206;2023-04-12T01:23:14;26.83;;;16.15;;
36351;SDS011;22382;44.768;17.206;2023-04-12T01:28:59;25.85;;;16.80;;
36351;SDS011;22382;44.768;17.206;2023-04-12T01:31:29;31.77;;;16.92;;
36351;SDS011;22382;44.768;17.206;2023-04-12T01:33:58;25.45;;;15.45;;
36351;SDS011;22382;44.768;17.206;2023-04-12T01:36:28;25.20;;;16.27;;
36351;SDS011;22382;44.768;17.206;2023-04-12T01:38:56;26.50;;;17.70;;
36351;SDS011;22382;44.768;17.206;2023-04-12T01:41:24;29.25;;;18.25;;
36351;SDS011;22382;44.768;17.206;2023-04-12T01:43:51;28.45;;;18.55;;
36351;SDS011;22382;44.768;17.206;2023-04-12T01:46:18;26.50;;;17.35;;
36351;SDS011;22382;44.768;17.206;2023-04-12T01:48:48;25.92;;;16.17;;
36351;SDS011;22382;44.768;17.206;2023-04-12T01:51:51;24.65;;;16.35;;
36351;SDS011;22382;44.768;17.206;2023-04-12T01:54:21;24.92;;;15.48;;
36351;SDS011;22382;44.768;17.206;2023-04-12T01:56:58;23.25;;;15.40;;
36351;SDS011;22382;44.768;17.206;2023-04-12T01:59:31;24.83;;;15.38;;
36351;SDS011;22382;44.768;17.206;2023-04-12T02:02:01;22.83;;;14.70;;
36351;SDS011;22382;44.768;17.206;2023-04-12T02:04:29;21.60;;;14.60;;
36351;SDS011;22382;44.768;17.206;2023-04-12T02:06:57;23.20;;;15.07;;
36351;SDS011;22382;44.768;17.206;2023-04-12T02:09:25;26.73;;;17.00;;
36351;SDS011;22382;44.768;17.206;2023-04-12T02:11:52;26.58;;;18.15;;
36351;SDS011;22382;44.768;17.206;2023-04-12T02:14:19;27.95;;;17.38;;
36351;SDS011;22382;44.768;17.206;2023-04-12T02:16:47;26.92;;;16.75;;
36351;SDS011;22382;44.768;17.206;2023-04-12T02:19:16;25.02;;;16.63;;
36351;SDS011;22382;44.768;17.206;2023-04-12T02:21:44;26.88;;;16.55;;
36351;SDS011;22382;44.768;17.206;2023-04-12T02:24:12;27.02;;;16.45;;
36351;SDS011;22382;44.768;17.206;2023-04-12T02:26:42;24.90;;;16.05;;
36351;SDS011;22382;44.768;17.206;2023-04-12T02:29:09;23.63;;;16.10;;
36351;SDS011;22382;44.768;17.206;2023-04-12T02:31:37;25.08;;;16.45;;
36351;SDS011;22382;44.768;17.206;2023-04-12T02:34:04;30.83;;;18.55;;
36351;SDS011;22382;44.768;17.206;2023-04-12T02:36:32;26.98;;;18.40;;
36351;SDS011;22382;44.768;17.206;2023-04-12T02:39:00;28.42;;;17.20;;
36351;SDS011;22382;44.768;17.206;2023-04-12T02:41:27;29.10;;;17.48;;
36351;SDS011;22382;44.768;17.206;2023-04-12T02:43:54;24.55;;;16.67;;
36351;SDS011;22382;44.768;17.206;2023-04-12T02:46:22;29.27;;;17.65;;
36351;SDS011;22382;44.768;17.206;2023-04-12T02:48:52;27.67;;;17.48;;
36351;SDS011;22382;44.768;17.206;2023-04-12T02:51:19;24.95;;;16.38;;
36351;SDS011;22382;44.768;17.206;2023-04-12T02:53:46;23.80;;;16.10;;
36351;SDS011;22382;44.768;17.206;2023-04-12T02:56:14;24.65;;;15.77;;
36351;SDS011;22382;44.768;17.206;2023-04-12T02:58:44;23.20;;;15.15;;
36351;SDS011;22382;44.768;17.206;2023-04-12T03:01:12;25.15;;;15.18;;
36351;SDS011;22382;44.768;17.206;2023-04-12T03:03:39;23.20;;;14.25;;
36351;SDS011;22382;44.768;17.206;2023-04-12T03:06:07;19.73;;;13.20;;
36351;SDS011;22382;44.768;17.206;2023-04-12T03:08:34;22.23;;;12.77;;
36351;SDS011;22382;44.768;17.206;2023-04-12T03:11:02;20.23;;;13.43;;
36351;SDS011;22382;44.768;17.206;2023-04-12T03:13:29;19.67;;;13.38;;
36351;SDS011;22382;44.768;17.206;2023-04-12T03:15:57;20.23;;;12.65;;
36351;SDS011;22382;44.768;17.206;2023-04-12T03:18:25;19.50;;;13.18;;
36351;SDS011;22382;44.768;17.206;2023-04-12T03:20:52;20.77;;;13.40;;
36351;SDS011;22382;44.768;17.206;2023-04-12T03:23:19;21.27;;;13.48;;
36351;SDS011;22382;44.768;17.206;2023-04-12T03:25:46;19.67;;;12.63;;
36351;SDS011;22382;44.768;17.206;2023-04-12T03:28:13;21.15;;;13.15;;
36351;SDS011;22382;44.768;17.206;2023-04-12T03:30:41;18.45;;;12.50;;
36351;SDS011;22382;44.768;17.206;2023-04-12T03:33:08;20.35;;;11.93;;
36351;SDS011;22382;44.768;17.206;2023-04-12T03:35:35;19.85;;;12.07;;
36351;SDS011;22382;44.768;17.206;2023-04-12T03:38:02;22.40;;;12.68;;
36351;SDS011;22382;44.768;17.206;2023-04-12T03:40:29;18.08;;;12.60;;
36351;SDS011;22382;44.768;17.206;2023-04-12T03:42:56;20.77;;;12.50;;
36351;SDS011;22382;44.768;17.206;2023-04-12T03:45:27;19.38;;;12.30;;
36351;SDS011;22382;44.768;17.206;2023-04-12T03:47:54;17.38;;;11.93;;
36351;SDS011;22382;44.768;17.206;2023-04-12T03:50:21;20.42;;;12.80;;
36351;SDS011;22382;44.768;17.206;2023-04-12T03:52:48;20.15;;;12.90;;
36351;SDS011;22382;44.768;17.206;2023-04-12T03:55:16;18.75;;;12.68;;
36351;SDS011;22382;44.768;17.206;2023-04-12T03:57:43;22.98;;;13.48;;
36351;SDS011;22382;44.768;17.206;2023-04-12T04:00:10;23.02;;;14.82;;
36351;SDS011;22382;44.768;17.206;2023-04-12T04:02:38;30.58;;;18.90;;
36351;SDS011;22382;44.768;17.206;2023-04-12T04:05:05;59.13;;;32.60;;
36351;SDS011;22382;44.768;17.206;2023-04-12T04:07:33;53.45;;;30.95;;
36351;SDS011;22382;44.768;17.206;2023-04-12T04:10:02;52.33;;;30.13;;
36351;SDS011;22382;44.768;17.206;2023-04-12T04:12:30;57.80;;;30.98;;
36351;SDS011;22382;44.768;17.206;2023-04-12T04:14:58;92.70;;;48.72;;
36351;SDS011;22382;44.768;17.206;2023-04-12T04:17:25;87.03;;;48.55;;
36351;SDS011;22382;44.768;17.206;2023-04-12T04:19:52;76.32;;;43.45;;
36351;SDS011;22382;44.768;17.206;2023-04-12T04:22:19;47.15;;;27.70;;
36351;SDS011;22382;44.768;17.206;2023-04-12T04:24:47;40.28;;;24.83;;
36351;SDS011;22382;44.768;17.206;2023-04-12T04:27:15;41.65;;;24.38;;
36351;SDS011;22382;44.768;17.206;2023-04-12T04:29:42;35.65;;;20.75;;
36351;SDS011;22382;44.768;17.206;2023-04-12T04:32:11;39.47;;;21.75;;
36351;SDS011;22382;44.768;17.206;2023-04-12T04:34:38;33.92;;;19.23;;
36351;SDS011;22382;44.768;17.206;2023-04-12T04:37:06;29.23;;;18.02;;
36351;SDS011;22382;44.768;17.206;2023-04-12T04:39:33;27.90;;;17.60;;
36351;SDS011;22382;44.768;17.206;2023-04-12T04:42:00;21.85;;;16.13;;
36351;SDS011;22382;44.768;17.206;2023-04-12T04:44:27;24.30;;;15.82;;
36351;SDS011;22382;44.768;17.206;2023-04-12T04:46:55;26.00;;;14.88;;
36351;SDS011;22382;44.768;17.206;2023-04-12T04:49:24;23.88;;;14.98;;
36351;SDS011;22382;44.768;17.206;2023-04-12T04:51:51;19.67;;;14.00;;
36351;SDS011;22382;44.768;17.206;2023-04-12T04:54:19;21.38;;;13.18;;
36351;SDS011;22382;44.768;17.206;2023-04-12T04:56:46;17.58;;;11.52;;
36351;SDS011;22382;44.768;17.206;2023-04-12T04:59:13;20.55;;;11.93;;
36351;SDS011;22382;44.768;17.206;2023-04-12T05:01:43;18.73;;;11.25;;
36351;SDS011;22382;44.768;17.206;2023-04-12T05:04:10;17.23;;;11.23;;
36351;SDS011;22382;44.768;17.206;2023-04-12T05:06:37;17.63;;;10.95;;
36351;SDS011;22382;44.768;17.206;2023-04-12T05:09:04;20.45;;;11.88;;
36351;SDS011;22382;44.768;17.206;2023-04-12T05:11:32;18.83;;;12.20;;
36351;SDS011;22382;44.768;17.206;2023-04-12T05:13:59;17.88;;;12.48;;
36351;SDS011;22382;44.768;17.206;2023-04-12T05:16:27;19.55;;;12.95;;
36351;SDS011;22382;44.768;17.206;2023-04-12T05:18:55;18.80;;;13.48;;
36351;SDS011;22382;44.768;17.206;2023-04-12T05:21:22;19.23;;;12.23;;
36351;SDS011;22382;44.768;17.206;2023-04-12T05:23:49;18.30;;;12.05;;
36351;SDS011;22382;44.768;17.206;2023-04-12T05:26:17;17.80;;;11.23;;
36351;SDS011;22382;44.768;17.206;2023-04-12T05:28:44;21.45;;;13.10;;
36351;SDS011;22382;44.768;17.206;2023-04-12T05:31:11;20.98;;;13.15;;
36351;SDS011;22382;44.768;17.206;2023-04-12T05:33:40;22.23;;;14.45;;
36351;SDS011;22382;44.768;17.206;2023-04-12T05:36:08;23.65;;;14.90;;
36351;SDS011;22382;44.768;17.206;2023-04-12T05:38:36;22.73;;;13.32;;
36351;SDS011;22382;44.768;17.206;2023-04-12T05:41:03;20.92;;;13.80;;
36351;SDS011;22382;44.768;17.206;2023-04-12T05:43:31;28.27;;;14.52;;
36351;SDS011;22382;44.768;17.206;2023-04-12T05:45:58;24.98;;;13.60;;
36351;SDS011;22382;44.768;17.206;2023-04-12T05:48:25;23.85;;;13.35;;
36351;SDS011;22382;44.768;17.206;2023-04-12T05:50:53;23.17;;;13.30;;
36351;SDS011;22382;44.768;17.206;2023-04-12T05:53:21;28.50;;;16.05;;
36351;SDS011;22382;44.768;17.206;2023-04-12T05:55:48;25.83;;;15.15;;
36351;SDS011;22382;44.768;17.206;2023-04-12T05:58:17;29.70;;;14.45;;
36351;SDS011;22382;44.768;17.206;2023-04-12T06:00:51;23.75;;;14.38;;
36351;SDS011;22382;44.768;17.206;2023-04-12T06:03:20;24.13;;;13.40;;
36351;SDS011;22382;44.768;17.206;2023-04-12T06:05:49;20.10;;;12.43;;
36351;SDS011;22382;44.768;17.206;2023-04-12T06:08:18;38.60;;;14.32;;
36351;SDS011;22382;44.768;17.206;2023-04-12T06:10:45;19.45;;;10.57;;
36351;SDS011;22382;44.768;17.206;2023-04-12T06:13:12;17.92;;;10.70;;
36351;SDS011;22382;44.768;17.206;2023-04-12T06:15:40;16.80;;;10.50;;
36351;SDS011;22382;44.768;17.206;2023-04-12T06:18:07;17.63;;;11.18;;
36351;SDS011;22382;44.768;17.206;2023-04-12T06:20:37;18.00;;;11.68;;
36351;SDS011;22382;44.768;17.206;2023-04-12T06:23:05;16.80;;;10.77;;
36351;SDS011;22382;44.768;17.206;2023-04-12T06:25:33;25.00;;;11.82;;
36351;SDS011;22382;44.768;17.206;2023-04-12T06:28:00;15.95;;;11.05;;
36351;SDS011;22382;44.768;17.206;2023-04-12T06:30:28;16.90;;;10.77;;
36351;SDS011;22382;44.768;17.206;2023-04-12T06:32:55;17.25;;;10.50;;
36351;SDS011;22382;44.768;17.206;2023-04-12T06:35:22;15.45;;;10.70;;
36351;SDS011;22382;44.768;17.206;2023-04-12T06:37:49;18.83;;;11.98;;
36351;SDS011;22382;44.768;17.206;2023-04-12T06:40:16;17.42;;;10.18;;
36351;SDS011;22382;44.768;17.206;2023-04-12T06:42:43;14.25;;;9.30;;
36351;SDS011;22382;44.768;17.206;2023-04-12T06:45:11;15.85;;;8.70;;
36351;SDS011;22382;44.768;17.206;2023-04-12T06:47:38;14.07;;;8.63;;
36351;SDS011;22382;44.768;17.206;2023-04-12T06:50:05;11.02;;;7.22;;
36351;SDS011;22382;44.768;17.206;2023-04-12T06:52:33;11.95;;;6.38;;
36351;SDS011;22382;44.768;17.206;2023-04-12T06:55:00;13.75;;;7.20;;
36351;SDS011;22382;44.768;17.206;2023-04-12T06:57:27;12.68;;;8.13;;
36351;SDS011;22382;44.768;17.206;2023-04-12T06:59:54;10.68;;;6.78;;
36351;SDS011;22382;44.768;17.206;2023-04-12T07:02:21;10.25;;;4.50;;
36351;SDS011;22382;44.768;17.206;2023-04-12T07:04:52;10.15;;;4.68;;
36351;SDS011;22382;44.768;17.206;2023-04-12T07:07:19;10.93;;;4.63;;
36351;SDS011;22382;44.768;17.206;2023-04-12T07:09:47;8.18;;;4.30;;
36351;SDS011;22382;44.768;17.206;2023-04-12T07:12:14;9.10;;;3.70;;
36351;SDS011;22382;44.768;17.206;2023-04-12T07:14:41;6.75;;;3.95;;
36351;SDS011;22382;44.768;17.206;2023-04-12T07:17:10;8.93;;;5.53;;
36351;SDS011;22382;44.768;17.206;2023-04-12T07:19:37;9.57;;;6.18;;
36351;SDS011;22382;44.768;17.206;2023-04-12T07:22:04;10.02;;;6.30;;
36351;SDS011;22382;44.768;17.206;2023-04-12T07:24:32;9.25;;;5.10;;
36351;SDS011;22382;44.768;17.206;2023-04-12T07:26:59;8.25;;;4.47;;
36351;SDS011;22382;44.768;17.206;2023-04-12T07:29:26;10.45;;;4.75;;
36351;SDS011;22382;44.768;17.206;2023-04-12T07:31:53;10.18;;;4.30;;
36351;SDS011;22382;44.768;17.206;2023-04-12T07:34:21;7.07;;;3.85;;
36351;SDS011;22382;44.768;17.206;2023-04-12T07:36:49;7.13;;;4.05;;
36351;SDS011;22382;44.768;17.206;2023-04-12T07:39:16;7.00;;;3.78;;
36351;SDS011;22382;44.768;17.206;2023-04-12T07:41:43;6.40;;;2.97;;
36351;SDS011;22382;44.768;17.206;2023-04-12T07:44:12;6.63;;;2.97;;
36351;SDS011;22382;44.768;17.206;2023-04-12T07:46:39;6.25;;;3.90;;
36351;SDS011;22382;44.768;17.206;2023-04-12T07:49:07;6.32;;;3.22;;
36351;SDS011;22382;44.768;17.206;2023-04-12T07:51:36;8.50;;;4.63;;
36351;SDS011;22382;44.768;17.206;2023-04-12T07:54:03;6.40;;;3.08;;
36351;SDS011;22382;44.768;17.206;2023-04-12T07:56:32;4.95;;;3.10;;
36351;SDS011;22382;44.768;17.206;2023-04-12T07:59:00;4.85;;;1.95;;
36351;SDS011;22382;44.768;17.206;2023-04-12T08:01:30;3.80;;;2.20;;
36351;SDS011;22382;44.768;17.206;2023-04-12T08:04:03;5.45;;;2.10;;
36351;SDS011;22382;44.768;17.206;2023-04-12T08:06:30;5.00;;;2.50;;
36351;SDS011;22382;44.768;17.206;2023-04-12T08:09:01;6.57;;;2.30;;
36351;SDS011;22382;44.768;17.206;2023-04-12T08:11:28;4.68;;;2.30;;
36351;SDS011;22382;44.768;17.206;2023-04-12T08:13:55;4.63;;;2.60;;
36351;SDS011;22382;44.768;17.206;2023-04-12T08:16:23;7.10;;;2.45;;
36351;SDS011;22382;44.768;17.206;2023-04-12T08:18:52;4.55;;;2.00;;
36351;SDS011;22382;44.768;17.206;2023-04-12T08:21:19;4.88;;;2.08;;
36351;SDS011;22382;44.768;17.206;2023-04-12T08:23:48;4.65;;;2.30;;
36351;SDS011;22382;44.768;17.206;2023-04-12T08:26:17;3.55;;;1.83;;
36351;SDS011;22382;44.768;17.206;2023-04-12T08:28:47;3.17;;;1.70;;
36351;SDS011;22382;44.768;17.206;2023-04-12T08:31:17;5.00;;;2.00;;
36351;SDS011;22382;44.768;17.206;2023-04-12T08:33:48;5.40;;;2.40;;
36351;SDS011;22382;44.768;17.206;2023-04-12T08:36:19;4.80;;;2.13;;
36351;SDS011;22382;44.768;17.206;2023-04-12T08:38:49;3.35;;;2.20;;
36351;SDS011;22382;44.768;17.206;2023-04-12T08:41:20;8.68;;;2.17;;
36351;SDS011;22382;44.768;17.206;2023-04-12T08:43:50;4.47;;;2.00;;
36351;SDS011;22382;44.768;17.206;2023-04-12T08:46:23;4.40;;;2.10;;
36351;SDS011;22382;44.768;17.206;2023-04-12T08:48:53;4.95;;;2.40;;
36351;SDS011;22382;44.768;17.206;2023-04-12T08:51:23;4.20;;;2.00;;
36351;SDS011;22382;44.768;17.206;2023-04-12T08:53:53;3.20;;;2.10;;
36351;SDS011;22382;44.768;17.206;2023-04-12T08:56:24;4.85;;;2.03;;
36351;SDS011;22382;44.768;17.206;2023-04-12T08:58:55;4.75;;;2.35;;
36351;SDS011;22382;44.768;17.206;2023-04-12T09:01:30;5.50;;;2.30;;
36351;SDS011;22382;44.768;17.206;2023-04-12T09:04:04;4.63;;;2.00;;
36351;SDS011;22382;44.768;17.206;2023-04-12T09:06:34;4.72;;;2.13;;
36351;SDS011;22382;44.768;17.206;2023-04-12T09:09:04;4.47;;;2.00;;
36351;SDS011;22382;44.768;17.206;2023-04-12T09:11:33;5.05;;;2.00;;
36351;SDS011;22382;44.768;17.206;2023-04-12T09:14:03;3.92;;;2.05;;
36351;SDS011;22382;44.768;17.206;2023-04-12T09:16:49;4.63;;;2.70;;
36351;SDS011;22382;44.768;17.206;2023-04-12T09:19:32;5.05;;;2.13;;
36351;SDS011;22382;44.768;17.206;2023-04-12T09:22:07;5.72;;;1.95;;
36351;SDS011;22382;44.768;17.206;2023-04-12T09:24:47;4.85;;;2.00;;
36351;SDS011;22382;44.768;17.206;2023-04-12T09:27:20;4.57;;;2.03;;
36351;SDS011;22382;44.768;17.206;2023-04-12T09:29:49;3.63;;;2.30;;
36351;SDS011;22382;44.768;17.206;2023-04-12T09:32:25;3.20;;;1.35;;
36351;SDS011;22382;44.768;17.206;2023-04-12T09:34:57;3.88;;;1.67;;
36351;SDS011;22382;44.768;17.206;2023-04-12T09:37:30;5.45;;;1.40;;
36351;SDS011;22382;44.768;17.206;2023-04-12T09:39:59;4.10;;;1.90;;
36351;SDS011;22382;44.768;17.206;2023-04-12T09:42:33;5.40;;;1.95;;
36351;SDS011;22382;44.768;17.206;2023-04-12T09:45:19;3.80;;;1.27;;
36351;SDS011;22382;44.768;17.206;2023-04-12T09:47:53;2.20;;;1.15;;
36351;SDS011;22382;44.768;17.206;2023-04-12T09:50:26;1.77;;;1.10;;
36351;SDS011;22382;44.768;17.206;2023-04-12T09:52:57;3.78;;;1.58;;
36351;SDS011;22382;44.768;17.206;2023-04-12T09:55:29;3.58;;;1.50;;
36351;SDS011;22382;44.768;17.206;2023-04-12T09:58:00;4.65;;;1.15;;
36351;SDS011;22382;44.768;17.206;2023-04-12T10:00:31;2.17;;;1.08;;
36351;SDS011;22382;44.768;17.206;2023-04-12T10:03:00;3.40;;;1.17;;
36351;SDS011;22382;44.768;17.206;2023-04-12T10:05:31;4.43;;;1.83;;
36351;SDS011;22382;44.768;17.206;2023-04-12T10:08:02;4.10;;;0.90;;
36351;SDS011;22382;44.768;17.206;2023-04-12T10:10:33;1.90;;;1.17;;
36351;SDS011;22382;44.768;17.206;2023-04-12T10:13:02;4.03;;;1.13;;
36351;SDS011;22382;44.768;17.206;2023-04-12T10:15:33;5.63;;;2.50;;
36351;SDS011;22382;44.768;17.206;2023-04-12T10:18:03;4.13;;;1.60;;
36351;SDS011;22382;44.768;17.206;2023-04-12T10:20:33;2.83;;;1.27;;
36351;SDS011;22382;44.768;17.206;2023-04-12T10:23:04;3.83;;;1.38;;
36351;SDS011;22382;44.768;17.206;2023-04-12T10:25:40;2.42;;;1.52;;
36351;SDS011;22382;44.768;17.206;2023-04-12T10:28:16;2.25;;;1.15;;
36351;SDS011;22382;44.768;17.206;2023-04-12T10:34:01;2.88;;;0.90;;
36351;SDS011;22382;44.768;17.206;2023-04-12T10:42:29;5.38;;;1.60;;
36351;SDS011;22382;44.768;17.206;2023-04-12T10:47:54;5.10;;;0.95;;
36351;SDS011;22382;44.768;17.206;2023-04-12T10:50:31;3.35;;;1.02;;
36351;SDS011;22382;44.768;17.206;2023-04-12T10:55:39;2.75;;;1.10;;
36351;SDS011;22382;44.768;17.206;2023-04-12T10:58:13;2.72;;;1.20;;
36351;SDS011;22382;44.768;17.206;2023-04-12T11:01:15;2.65;;;1.13;;
36351;SDS011;22382;44.768;17.206;2023-04-12T11:09:26;2.65;;;1.00;;
36351;SDS011;22382;44.768;17.206;2023-04-12T11:14:37;1.60;;;0.90;;
36351;SDS011;22382;44.768;17.206;2023-04-12T11:19:45;1.88;;;1.05;;
36351;SDS011;22382;44.768;17.206;2023-04-12T11:22:26;3.55;;;0.95;;
36351;SDS011;22382;44.768;17.206;2023-04-12T11:27:28;3.35;;;0.95;;
36351;SDS011;22382;44.768;17.206;2023-04-12T11:29:59;3.08;;;0.75;;
36351;SDS011;22382;44.768;17.206;2023-04-12T11:32:29;13.10;;;1.88;;
36351;SDS011;22382;44.768;17.206;2023-04-12T11:34:59;2.90;;;0.80;;
36351;SDS011;22382;44.768;17.206;2023-04-12T11:37:27;1.45;;;0.95;;
36351;SDS011;22382;44.768;17.206;2023-04-12T11:39:58;2.28;;;0.82;;
36351;SDS011;22382;44.768;17.206;2023-04-12T11:42:27;3.72;;;0.95;;
36351;SDS011;22382;44.768;17.206;2023-04-12T11:45:00;3.78;;;1.10;;
36351;SDS011;22382;44.768;17.206;2023-04-12T11:47:42;2.47;;;0.93;;
36351;SDS011;22382;44.768;17.206;2023-04-12T11:50:11;3.85;;;0.70;;
36351;SDS011;22382;44.768;17.206;2023-04-12T11:52:40;2.63;;;1.02;;
36351;SDS011;22382;44.768;17.206;2023-04-12T11:55:08;2.03;;;1.00;;
36351;SDS011;22382;44.768;17.206;2023-04-12T11:57:38;2.92;;;0.80;;
36351;SDS011;22382;44.768;17.206;2023-04-12T12:00:07;2.63;;;1.17;;
36351;SDS011;22382;44.768;17.206;2023-04-12T12:02:37;4.50;;;1.10;;
36351;SDS011;22382;44.768;17.206;2023-04-12T12:05:21;6.60;;;1.33;;
36351;SDS011;22382;44.768;17.206;2023-04-12T12:07:51;2.40;;;1.10;;
36351;SDS011;22382;44.768;17.206;2023-04-12T12:10:21;3.65;;;1.70;;
36351;SDS011;22382;44.768;17.206;2023-04-12T12:13:13;2.10;;;1.17;;
36351;SDS011;22382;44.768;17.206;2023-04-12T12:15:43;4.70;;;1.65;;
36351;SDS011;22382;44.768;17.206;2023-04-12T12:18:12;3.30;;;1.92;;
36351;SDS011;22382;44.768;17.206;2023-04-12T12:20:41;2.95;;;1.15;;
36351;SDS011;22382;44.768;17.206;2023-04-12T12:26:22;2.50;;;1.13;;
36351;SDS011;22382;44.768;17.206;2023-04-12T12:28:52;3.20;;;0.98;;
36351;SDS011;22382;44.768;17.206;2023-04-12T12:31:24;2.38;;;1.45;;
36351;SDS011;22382;44.768;17.206;2023-04-12T12:33:55;2.05;;;1.05;;
36351;SDS011;22382;44.768;17.206;2023-04-12T12:36:29;3.08;;;1.35;;
36351;SDS011;22382;44.768;17.206;2023-04-12T12:39:06;2.65;;;1.27;;
36351;SDS011;22382;44.768;17.206;2023-04-12T12:41:38;4.10;;;1.70;;
36351;SDS011;22382;44.768;17.206;2023-04-12T12:44:07;5.68;;;1.77;;
36351;SDS011;22382;44.768;17.206;2023-04-12T12:46:38;4.85;;;1.20;;
36351;SDS011;22382;44.768;17.206;2023-04-12T12:49:21;3.00;;;1.30;;
36351;SDS011;22382;44.768;17.206;2023-04-12T12:51:50;1.92;;;1.20;;
36351;SDS011;22382;44.768;17.206;2023-04-12T12:54:19;3.83;;;1.70;;
36351;SDS011;22382;44.768;17.206;2023-04-12T12:57:06;5.93;;;1.42;;
36351;SDS011;22382;44.768;17.206;2023-04-12T12:59:35;2.45;;;1.30;;
36351;SDS011;22382;44.768;17.206;2023-04-12T13:02:04;4.68;;;1.40;;
36351;SDS011;22382;44.768;17.206;2023-04-12T13:04:33;3.30;;;1.23;;
36351;SDS011;22382;44.768;17.206;2023-04-12T13:07:04;5.25;;;2.40;;
36351;SDS011;22382;44.768;17.206;2023-04-12T13:09:33;4.20;;;1.85;;
36351;SDS011;22382;44.768;17.206;2023-04-12T13:12:03;3.58;;;1.55;;
36351;SDS011;22382;44.768;17.206;2023-04-12T13:14:37;4.32;;;1.40;;
36351;SDS011;22382;44.768;17.206;2023-04-12T13:17:08;2.55;;;1.27;;
36351;SDS011;22382;44.768;17.206;2023-04-12T13:19:39;1.90;;;1.23;;
36351;SDS011;22382;44.768;17.206;2023-04-12T13:22:13;2.67;;;1.27;;
36351;SDS011;22382;44.768;17.206;2023-04-12T13:24:45;3.97;;;1.20;;
36351;SDS011;22382;44.768;17.206;2023-04-12T13:27:15;3.15;;;1.38;;
36351;SDS011;22382;44.768;17.206;2023-04-12T13:29:47;3.15;;;1.38;;
36351;SDS011;22382;44.768;17.206;2023-04-12T13:32:16;3.22;;;1.23;;
36351;SDS011;22382;44.768;17.206;2023-04-12T13:34:45;1.73;;;1.13;;
36351;SDS011;22382;44.768;17.206;2023-04-12T13:37:14;3.25;;;1.25;;
36351;SDS011;22382;44.768;17.206;2023-04-12T13:39:45;3.65;;;1.30;;
36351;SDS011;22382;44.768;17.206;2023-04-12T13:42:13;2.15;;;1.55;;
36351;SDS011;22382;44.768;17.206;2023-04-12T13:44:45;4.00;;;1.67;;
36351;SDS011;22382;44.768;17.206;2023-04-12T13:47:16;2.80;;;1.50;;
36351;SDS011;22382;44.768;17.206;2023-04-12T13:49:45;4.57;;;1.48;;
36351;SDS011;22382;44.768;17.206;2023-04-12T13:52:14;3.95;;;1.60;;
36351;SDS011;22382;44.768;17.206;2023-04-12T13:54:43;2.47;;;1.42;;
36351;SDS011;22382;44.768;17.206;2023-04-12T13:57:12;2.33;;;1.58;;
36351;SDS011;22382;44.768;17.206;2023-04-12T13:59:41;2.80;;;1.30;;
36351;SDS011;22382;44.768;17.206;2023-04-12T14:02:11;4.43;;;1.35;;
36351;SDS011;22382;44.768;17.206;2023-04-12T14:04:49;3.67;;;1.20;;
36351;SDS011;22382;44.768;17.206;2023-04-12T14:07:19;3.22;;;1.50;;
36351;SDS011;22382;44.768;17.206;2023-04-12T14:09:49;3.83;;;1.67;;
36351;SDS011;22382;44.768;17.206;2023-04-12T14:12:17;2.75;;;1.17;;
36351;SDS011;22382;44.768;17.206;2023-04-12T14:14:46;3.15;;;1.15;;
36351;SDS011;22382;44.768;17.206;2023-04-12T14:17:15;3.05;;;1.40;;
36351;SDS011;22382;44.768;17.206;2023-04-12T14:19:44;4.13;;;1.50;;
36351;SDS011;22382;44.768;17.206;2023-04-12T14:22:13;3.30;;;1.45;;
36351;SDS011;22382;44.768;17.206;2023-04-12T14:24:42;3.67;;;1.35;;
36351;SDS011;22382;44.768;17.206;2023-04-12T14:27:11;2.95;;;1.40;;
36351;SDS011;22382;44.768;17.206;2023-04-12T14:29:43;2.72;;;1.38;;
36351;SDS011;22382;44.768;17.206;2023-04-12T14:32:12;3.05;;;1.60;;
36351;SDS011;22382;44.768;17.206;2023-04-12T14:34:40;3.30;;;1.30;;
36351;SDS011;22382;44.768;17.206;2023-04-12T14:37:09;2.35;;;1.70;;
36351;SDS011;22382;44.768;17.206;2023-04-12T14:39:36;3.55;;;1.88;;
36351;SDS011;22382;44.768;17.206;2023-04-12T14:42:04;3.35;;;2.17;;
36351;SDS011;22382;44.768;17.206;2023-04-12T14:44:31;4.38;;;2.67;;
36351;SDS011;22382;44.768;17.206;2023-04-12T14:46:59;5.18;;;2.17;;
36351;SDS011;22382;44.768;17.206;2023-04-12T14:49:26;4.00;;;1.73;;
36351;SDS011;22382;44.768;17.206;2023-04-12T14:51:58;4.35;;;1.67;;
36351;SDS011;22382;44.768;17.206;2023-04-12T14:54:25;6.43;;;1.50;;
36351;SDS011;22382;44.768;17.206;2023-04-12T14:56:53;3.78;;;2.50;;
36351;SDS011;22382;44.768;17.206;2023-04-12T14:59:21;4.75;;;2.45;;
36351;SDS011;22382;44.768;17.206;2023-04-12T15:01:48;4.82;;;2.50;;
36351;SDS011;22382;44.768;17.206;2023-04-12T15:04:18;3.42;;;1.70;;
36351;SDS011;22382;44.768;17.206;2023-04-12T15:06:45;4.55;;;2.53;;
36351;SDS011;22382;44.768;17.206;2023-04-12T15:09:13;9.15;;;6.20;;
36351;SDS011;22382;44.768;17.206;2023-04-12T15:11:43;8.95;;;5.80;;
36351;SDS011;22382;44.768;17.206;2023-04-12T15:14:14;4.53;;;2.43;;
36351;SDS011;22382;44.768;17.206;2023-04-12T15:16:43;5.10;;;2.00;;
36351;SDS011;22382;44.768;17.206;2023-04-12T15:19:13;4.90;;;1.70;;
36351;SDS011;22382;44.768;17.206;2023-04-12T15:21:50;3.38;;;1.60;;